Cool Runner — 9HA3506 — position and weather

sailwx.info

Track history (hours):
 
Tides and Currents Weather Stations Pressure Air Temp Water Temp Dewpoint Dewpoint Depression Visibility Wind Speed Wind Dir Waves Ship Positions

Cool Runner

Last reported at 2018-May-08 01:59 UTC. Time now 2018-Jun-23 19:35 UTC.
Position N 27°04' W 091°31'.
Warning: this ship's position is 46 days out of date.

Length 281 m; draft 11.4 m.

Type: Tanker. MMSI: 229673000.

Date/timePositionNaut miles runAvg speedWind from/ knotsBaromVisibWave heightAir tempDewpointWater temp
2018-May-08 01:59N 27°04' W 091°31'918.0
2018-May-08 01:30N 27°09' W 091°39'3217.9
2018-May-07 23:41N 27°29' W 092°08'618.0
2018-May-07 23:21N 27°33' W 092°13'718.3
2018-May-07 23:00N 27°37' W 092°19'918.6
2018-May-07 22:30N 27°44' W 092°26'1118.5
2018-May-07 21:54N 27°52' W 092°35'718.3
2018-May-07 21:31N 27°57' W 092°40'918.6
2018-May-07 21:00N 28°05' W 092°46'918.7
2018-May-07 20:31N 28°12' W 092°53'918.6
2018-May-07 20:01N 28°20' W 092°59'918.5
2018-May-07 19:31N 28°27' W 093°05'918.2
2018-May-07 19:01N 28°34' W 093°11'917.8
2018-May-07 18:31N 28°41' W 093°18'916.9
2018-May-07 18:00N 28°48' W 093°24'816.7
2018-May-07 17:31N 28°55' W 093°29'816.3
2018-May-07 17:01N 29°01' W 093°35'713.2
2018-May-07 16:30N 29°07' W 093°39'611.2
2018-May-07 16:00N 29°12' W 093°39'611.4
2018-May-07 15:30N 29°18' W 093°40'510.8
2018-May-07 15:00N 29°24' W 093°40'4 8.0
2018-May-07 14:30N 29°28' W 093°40'611.1
2018-May-07 14:00N 29°32' W 093°44'611.8
2018-May-07 13:30N 29°36' W 093°48'510.5
2018-May-07 13:00N 29°41' W 093°50'4 7.2
2018-May-07 12:30N 29°44' W 093°52'0 0.4
2018-May-07 12:00N 29°45' W 093°52'0 0.0
2018-May-07 11:28N 29°45' W 093°52'0 0.0
2018-May-07 10:58N 29°45' W 093°52'0 0.0
2018-May-07 10:28N 29°45' W 093°52'0 0.0
2018-May-07 09:58N 29°45' W 093°52'0 0.0
2018-May-07 09:28N 29°45' W 093°52'0 0.0
2018-May-07 08:58N 29°45' W 093°52'0 0.0
2018-May-07 08:28N 29°45' W 093°52'0 0.0
2018-May-07 07:58N 29°45' W 093°52'0 0.0
2018-May-07 07:28N 29°45' W 093°52'0 0.0
2018-May-07 06:58N 29°45' W 093°52'0 0.0
2018-May-07 06:28N 29°45' W 093°52'0 0.0
2018-May-07 05:58N 29°45' W 093°52'0 0.0
2018-May-07 05:28N 29°45' W 093°52'0 0.0
2018-May-07 04:58N 29°45' W 093°52'0 0.0
2018-May-07 04:28N 29°45' W 093°52'0 0.0
2018-May-07 03:58N 29°45' W 093°52'0 0.0
2018-May-07 03:28N 29°45' W 093°52'0 0.0
2018-May-07 02:58N 29°45' W 093°52'0 0.0
2018-May-07 02:28N 29°45' W 093°52'0 0.0
2018-May-07 01:58N 29°45' W 093°52'0 0.0
2018-May-07 01:28N 29°45' W 093°52'0 0.0
2018-May-07 00:58N 29°45' W 093°52'0 0.0
2018-May-07 00:28N 29°45' W 093°52'0 0.0
2018-May-06 23:58N 29°45' W 093°52'0 0.0
2018-May-06 23:28N 29°45' W 093°52'0 0.0
2018-May-06 22:58N 29°45' W 093°52'0 0.0
2018-May-06 22:28N 29°45' W 093°52'0 0.0
2018-May-06 21:58N 29°45' W 093°52'0 0.0
2018-May-06 21:28N 29°45' W 093°52'0 0.0
2018-May-06 20:58N 29°45' W 093°52'0 0.0
2018-May-06 20:28N 29°45' W 093°52'0 0.0
2018-May-06 19:58N 29°45' W 093°52'0 0.0
2018-May-06 19:28N 29°45' W 093°52'0 0.0
2018-May-06 18:58N 29°45' W 093°52'0 0.0
2018-May-06 18:28N 29°45' W 093°52'0 0.0
2018-May-06 17:58N 29°45' W 093°52'0 0.0
2018-May-06 17:28N 29°45' W 093°52'0 0.0
2018-May-06 16:58N 29°45' W 093°52'0 0.0
2018-May-06 16:28N 29°45' W 093°52'0 0.0
2018-May-06 15:58N 29°45' W 093°52'0 0.0
2018-May-06 15:28N 29°45' W 093°52'0 0.0
2018-May-06 14:58N 29°45' W 093°52'0 0.0
2018-May-06 14:28N 29°45' W 093°52'0 0.0
2018-May-06 13:58N 29°45' W 093°52'0 0.0
2018-May-06 13:30N 29°45' W 093°52'1 1.0
2018-May-06 13:00N 29°44' W 093°52'3 6.5
2018-May-06 12:30N 29°41' W 093°50'611.0
2018-May-06 12:00N 29°36' W 093°48'611.8
2018-May-06 11:30N 29°32' W 093°44'511.0
2018-May-06 11:00N 29°27' W 093°40'3 6.9
2018-May-06 10:30N 29°24' W 093°39'5 9.1
2018-May-06 10:01N 29°19' W 093°39'712.6
2018-May-06 09:28N 29°13' W 093°39'612.5
2018-May-06 09:00N 29°07' W 093°38'713.8
2018-May-06 08:30N 29°01' W 093°33'815.1
2018-May-06 08:00N 28°55' W 093°28'  
Track history (hours):
 
Tides and Currents Weather Stations Pressure Air Temp Water Temp Dewpoint Dewpoint Depression Visibility Wind Speed Wind Dir Waves Ship Positions

Cool Runner

Last reported at 2018-May-08 01:59 UTC. Time now 2018-Jun-23 19:35 UTC.
Position N 27°04' W 091°31'.
Warning: this ship's position is 46 days out of date.

Length 281 m; draft 11.4 m.

Type: Tanker. MMSI: 229673000.

Date/timePositionNaut miles runAvg speedWind from/ knotsBaromVisibWave heightAir tempDewpointWater temp
2018-May-08 01:59N 27°04' W 091°31'918.0
2018-May-08 01:30N 27°09' W 091°39'3217.9
2018-May-07 23:41N 27°29' W 092°08'618.0
2018-May-07 23:21N 27°33' W 092°13'718.3
2018-May-07 23:00N 27°37' W 092°19'918.6
2018-May-07 22:30N 27°44' W 092°26'1118.5
2018-May-07 21:54N 27°52' W 092°35'718.3
2018-May-07 21:31N 27°57' W 092°40'918.6
2018-May-07 21:00N 28°05' W 092°46'918.7
2018-May-07 20:31N 28°12' W 092°53'918.6
2018-May-07 20:01N 28°20' W 092°59'918.5
2018-May-07 19:31N 28°27' W 093°05'918.2
2018-May-07 19:01N 28°34' W 093°11'917.8
2018-May-07 18:31N 28°41' W 093°18'916.9
2018-May-07 18:00N 28°48' W 093°24'816.7
2018-May-07 17:31N 28°55' W 093°29'816.3
2018-May-07 17:01N 29°01' W 093°35'713.2
2018-May-07 16:30N 29°07' W 093°39'611.2
2018-May-07 16:00N 29°12' W 093°39'611.4
2018-May-07 15:30N 29°18' W 093°40'510.8
2018-May-07 15:00N 29°24' W 093°40'4 8.0
2018-May-07 14:30N 29°28' W 093°40'611.1
2018-May-07 14:00N 29°32' W 093°44'611.8
2018-May-07 13:30N 29°36' W 093°48'510.5
2018-May-07 13:00N 29°41' W 093°50'4 7.2
2018-May-07 12:30N 29°44' W 093°52'0 0.4
2018-May-07 12:00N 29°45' W 093°52'0 0.0
2018-May-07 11:28N 29°45' W 093°52'0 0.0
2018-May-07 10:58N 29°45' W 093°52'0 0.0
2018-May-07 10:28N 29°45' W 093°52'0 0.0
2018-May-07 09:58N 29°45' W 093°52'0 0.0
2018-May-07 09:28N 29°45' W 093°52'0 0.0
2018-May-07 08:58N 29°45' W 093°52'0 0.0
2018-May-07 08:28N 29°45' W 093°52'0 0.0
2018-May-07 07:58N 29°45' W 093°52'0 0.0
2018-May-07 07:28N 29°45' W 093°52'0 0.0
2018-May-07 06:58N 29°45' W 093°52'0 0.0
2018-May-07 06:28N 29°45' W 093°52'0 0.0
2018-May-07 05:58N 29°45' W 093°52'0 0.0
2018-May-07 05:28N 29°45' W 093°52'0 0.0
2018-May-07 04:58N 29°45' W 093°52'0 0.0
2018-May-07 04:28N 29°45' W 093°52'0 0.0
2018-May-07 03:58N 29°45' W 093°52'0 0.0
2018-May-07 03:28N 29°45' W 093°52'0 0.0
2018-May-07 02:58N 29°45' W 093°52'0 0.0
2018-May-07 02:28N 29°45' W 093°52'0 0.0
2018-May-07 01:58N 29°45' W 093°52'0 0.0
2018-May-07 01:28N 29°45' W 093°52'0 0.0
2018-May-07 00:58N 29°45' W 093°52'0 0.0
2018-May-07 00:28N 29°45' W 093°52'0 0.0
2018-May-06 23:58N 29°45' W 093°52'0 0.0
2018-May-06 23:28N 29°45' W 093°52'0 0.0
2018-May-06 22:58N 29°45' W 093°52'0 0.0
2018-May-06 22:28N 29°45' W 093°52'0 0.0
2018-May-06 21:58N 29°45' W 093°52'0 0.0
2018-May-06 21:28N 29°45' W 093°52'0 0.0
2018-May-06 20:58N 29°45' W 093°52'0 0.0
2018-May-06 20:28N 29°45' W 093°52'0 0.0
2018-May-06 19:58N 29°45' W 093°52'0 0.0
2018-May-06 19:28N 29°45' W 093°52'0 0.0
2018-May-06 18:58N 29°45' W 093°52'0 0.0
2018-May-06 18:28N 29°45' W 093°52'0 0.0
2018-May-06 17:58N 29°45' W 093°52'0 0.0
2018-May-06 17:28N 29°45' W 093°52'0 0.0
2018-May-06 16:58N 29°45' W 093°52'0 0.0
2018-May-06 16:28N 29°45' W 093°52'0 0.0
2018-May-06 15:58N 29°45' W 093°52'0 0.0
2018-May-06 15:28N 29°45' W 093°52'0 0.0
2018-May-06 14:58N 29°45' W 093°52'0 0.0
2018-May-06 14:28N 29°45' W 093°52'0 0.0
2018-May-06 13:58N 29°45' W 093°52'0 0.0
2018-May-06 13:30N 29°45' W 093°52'1 1.0
2018-May-06 13:00N 29°44' W 093°52'3 6.5
2018-May-06 12:30N 29°41' W 093°50'611.0
2018-May-06 12:00N 29°36' W 093°48'611.8
2018-May-06 11:30N 29°32' W 093°44'511.0
2018-May-06 11:00N 29°27' W 093°40'3 6.9
2018-May-06 10:30N 29°24' W 093°39'5 9.1
2018-May-06 10:01N 29°19' W 093°39'712.6
2018-May-06 09:28N 29°13' W 093°39'612.5
2018-May-06 09:00N 29°07' W 093°38'713.8
2018-May-06 08:30N 29°01' W 093°33'815.1
2018-May-06 08:00N 28°55' W 093°28'  

Dump ship's entire track history